Terminal Aerodrome Forecast
Issued by NWS

Home | Current Version | Previous Version | Text Only | Print | Product List | Glossary On
Versions: 1 2 3 4 5 6 7 8 9 10 11 12 13 14
051
FTUS45 KTFX 120542
TAFCTB
TAF
KCTB 120542Z 1206/1306 18004KT P6SM SCT060 BKN120
     FM120900 VRB05KT P6SM SCT035 BKN060
     FM121300 VRB06KT P6SM VCSH SCT030 BKN050
     FM122200 21015KT P6SM SCT050=

USA.gov is the U.S. government's official web portal to all federal, state and local government web resources and services.